sensor_id;sensor_type;location;lat;lon;timestamp;P1;durP1;ratioP1;P2;durP2;ratioP2
25503;SDS011;13410;52.114;5.718;2022-08-19T00:01:27;10.25;;;9.15;;
25503;SDS011;13410;52.114;5.718;2022-08-19T00:03:54;13.15;;;10.57;;
25503;SDS011;13410;52.114;5.718;2022-08-19T00:06:20;12.40;;;10.32;;
25503;SDS011;13410;52.114;5.718;2022-08-19T00:08:46;10.60;;;9.30;;
25503;SDS011;13410;52.114;5.718;2022-08-19T00:11:12;10.93;;;9.27;;
25503;SDS011;13410;52.114;5.718;2022-08-19T00:13:37;10.80;;;9.70;;
25503;SDS011;13410;52.114;5.718;2022-08-19T00:16:04;10.77;;;9.27;;
25503;SDS011;13410;52.114;5.718;2022-08-19T00:18:31;12.13;;;9.82;;
25503;SDS011;13410;52.114;5.718;2022-08-19T00:20:58;11.30;;;9.23;;
25503;SDS011;13410;52.114;5.718;2022-08-19T00:23:24;10.35;;;8.60;;
25503;SDS011;13410;52.114;5.718;2022-08-19T00:25:50;10.70;;;8.75;;
25503;SDS011;13410;52.114;5.718;2022-08-19T00:28:17;7.60;;;6.40;;
25503;SDS011;13410;52.114;5.718;2022-08-19T00:30:43;9.45;;;8.55;;
25503;SDS011;13410;52.114;5.718;2022-08-19T00:33:08;9.00;;;8.02;;
25503;SDS011;13410;52.114;5.718;2022-08-19T00:35:34;10.32;;;8.18;;
25503;SDS011;13410;52.114;5.718;2022-08-19T00:38:00;9.57;;;8.45;;
25503;SDS011;13410;52.114;5.718;2022-08-19T00:40:25;8.90;;;7.57;;
25503;SDS011;13410;52.114;5.718;2022-08-19T00:42:51;9.35;;;8.32;;
25503;SDS011;13410;52.114;5.718;2022-08-19T00:45:22;10.30;;;8.82;;
25503;SDS011;13410;52.114;5.718;2022-08-19T00:47:51;7.80;;;6.93;;
25503;SDS011;13410;52.114;5.718;2022-08-19T00:50:18;11.38;;;7.53;;
25503;SDS011;13410;52.114;5.718;2022-08-19T00:52:47;9.85;;;8.38;;
25503;SDS011;13410;52.114;5.718;2022-08-19T00:55:20;8.32;;;7.53;;
25503;SDS011;13410;52.114;5.718;2022-08-19T00:57:53;8.13;;;7.32;;
25503;SDS011;13410;52.114;5.718;2022-08-19T01:00:22;8.27;;;6.70;;
25503;SDS011;13410;52.114;5.718;2022-08-19T01:02:49;7.95;;;7.15;;
25503;SDS011;13410;52.114;5.718;2022-08-19T01:05:23;7.40;;;6.70;;
25503;SDS011;13410;52.114;5.718;2022-08-19T01:07:52;7.82;;;7.05;;
25503;SDS011;13410;52.114;5.718;2022-08-19T01:10:20;9.48;;;7.45;;
25503;SDS011;13410;52.114;5.718;2022-08-19T01:12:48;9.02;;;7.55;;
25503;SDS011;13410;52.114;5.718;2022-08-19T01:15:16;14.00;;;8.45;;
25503;SDS011;13410;52.114;5.718;2022-08-19T01:17:43;10.93;;;9.52;;
25503;SDS011;13410;52.114;5.718;2022-08-19T01:20:14;8.95;;;7.47;;
25503;SDS011;13410;52.114;5.718;2022-08-19T01:22:46;9.85;;;8.43;;
25503;SDS011;13410;52.114;5.718;2022-08-19T01:25:20;10.35;;;7.85;;
25503;SDS011;13410;52.114;5.718;2022-08-19T01:27:49;10.73;;;8.38;;
25503;SDS011;13410;52.114;5.718;2022-08-19T01:30:17;9.63;;;7.75;;
25503;SDS011;13410;52.114;5.718;2022-08-19T01:32:51;11.02;;;7.65;;
25503;SDS011;13410;52.114;5.718;2022-08-19T01:35:17;8.73;;;7.82;;
25503;SDS011;13410;52.114;5.718;2022-08-19T01:37:48;12.88;;;7.40;;
25503;SDS011;13410;52.114;5.718;2022-08-19T01:40:17;8.13;;;7.05;;
25503;SDS011;13410;52.114;5.718;2022-08-19T01:42:45;7.47;;;6.65;;
25503;SDS011;13410;52.114;5.718;2022-08-19T01:45:13;7.32;;;6.63;;
25503;SDS011;13410;52.114;5.718;2022-08-19T01:47:38;8.02;;;7.22;;
25503;SDS011;13410;52.114;5.718;2022-08-19T01:50:05;8.80;;;7.45;;
25503;SDS011;13410;52.114;5.718;2022-08-19T01:52:34;7.70;;;6.90;;
25503;SDS011;13410;52.114;5.718;2022-08-19T01:55:00;7.97;;;6.32;;
25503;SDS011;13410;52.114;5.718;2022-08-19T01:57:26;7.70;;;6.90;;
25503;SDS011;13410;52.114;5.718;2022-08-19T01:59:52;7.75;;;6.72;;
25503;SDS011;13410;52.114;5.718;2022-08-19T02:02:18;7.43;;;6.65;;
25503;SDS011;13410;52.114;5.718;2022-08-19T02:04:44;7.50;;;6.70;;
25503;SDS011;13410;52.114;5.718;2022-08-19T02:07:10;8.32;;;6.95;;
25503;SDS011;13410;52.114;5.718;2022-08-19T02:09:36;9.30;;;7.07;;
25503;SDS011;13410;52.114;5.718;2022-08-19T02:12:02;9.88;;;7.57;;
25503;SDS011;13410;52.114;5.718;2022-08-19T02:14:29;10.63;;;8.55;;
25503;SDS011;13410;52.114;5.718;2022-08-19T02:16:54;11.77;;;7.57;;
25503;SDS011;13410;52.114;5.718;2022-08-19T02:19:20;9.20;;;7.78;;
25503;SDS011;13410;52.114;5.718;2022-08-19T02:21:45;9.90;;;7.25;;
25503;SDS011;13410;52.114;5.718;2022-08-19T02:24:11;7.55;;;6.75;;
25503;SDS011;13410;52.114;5.718;2022-08-19T02:26:37;7.90;;;7.00;;
25503;SDS011;13410;52.114;5.718;2022-08-19T02:29:03;7.97;;;7.20;;
25503;SDS011;13410;52.114;5.718;2022-08-19T02:31:29;7.90;;;6.93;;
25503;SDS011;13410;52.114;5.718;2022-08-19T02:33:55;7.70;;;6.90;;
25503;SDS011;13410;52.114;5.718;2022-08-19T02:36:21;8.93;;;6.88;;
25503;SDS011;13410;52.114;5.718;2022-08-19T02:38:47;9.05;;;6.80;;
25503;SDS011;13410;52.114;5.718;2022-08-19T02:41:15;8.93;;;6.50;;
25503;SDS011;13410;52.114;5.718;2022-08-19T02:43:42;8.15;;;6.88;;
25503;SDS011;13410;52.114;5.718;2022-08-19T02:46:18;9.70;;;7.13;;
25503;SDS011;13410;52.114;5.718;2022-08-19T02:48:49;8.15;;;7.35;;
25503;SDS011;13410;52.114;5.718;2022-08-19T02:51:22;8.18;;;7.22;;
25503;SDS011;13410;52.114;5.718;2022-08-19T02:53:50;11.07;;;8.10;;
25503;SDS011;13410;52.114;5.718;2022-08-19T02:56:16;10.77;;;7.65;;
25503;SDS011;13410;52.114;5.718;2022-08-19T02:58:42;11.02;;;7.78;;
25503;SDS011;13410;52.114;5.718;2022-08-19T03:01:08;7.80;;;7.00;;
25503;SDS011;13410;52.114;5.718;2022-08-19T03:03:35;6.90;;;6.20;;
25503;SDS011;13410;52.114;5.718;2022-08-19T03:08:35;8.63;;;7.00;;
25503;SDS011;13410;52.114;5.718;2022-08-19T03:11:01;8.68;;;6.63;;
25503;SDS011;13410;52.114;5.718;2022-08-19T03:13:27;8.52;;;7.03;;
25503;SDS011;13410;52.114;5.718;2022-08-19T03:15:53;9.73;;;6.95;;
25503;SDS011;13410;52.114;5.718;2022-08-19T03:18:19;8.02;;;7.15;;
25503;SDS011;13410;52.114;5.718;2022-08-19T03:20:48;11.68;;;7.10;;
25503;SDS011;13410;52.114;5.718;2022-08-19T03:23:17;6.90;;;6.20;;
25503;SDS011;13410;52.114;5.718;2022-08-19T03:25:46;9.90;;;8.20;;
25503;SDS011;13410;52.114;5.718;2022-08-19T03:28:13;9.93;;;7.50;;
25503;SDS011;13410;52.114;5.718;2022-08-19T03:30:40;9.18;;;7.63;;
25503;SDS011;13410;52.114;5.718;2022-08-19T03:33:08;10.15;;;7.63;;
25503;SDS011;13410;52.114;5.718;2022-08-19T03:35:34;12.32;;;8.73;;
25503;SDS011;13410;52.114;5.718;2022-08-19T03:38:04;12.13;;;9.55;;
25503;SDS011;13410;52.114;5.718;2022-08-19T03:40:31;7.28;;;6.53;;
25503;SDS011;13410;52.114;5.718;2022-08-19T03:42:59;12.25;;;7.00;;
25503;SDS011;13410;52.114;5.718;2022-08-19T03:45:25;9.38;;;7.57;;
25503;SDS011;13410;52.114;5.718;2022-08-19T03:47:52;11.93;;;8.57;;
25503;SDS011;13410;52.114;5.718;2022-08-19T03:50:18;9.38;;;7.82;;
25503;SDS011;13410;52.114;5.718;2022-08-19T03:52:47;11.88;;;8.50;;
25503;SDS011;13410;52.114;5.718;2022-08-19T03:55:17;8.80;;;7.63;;
25503;SDS011;13410;52.114;5.718;2022-08-19T03:57:43;11.88;;;7.55;;
25503;SDS011;13410;52.114;5.718;2022-08-19T04:00:10;9.65;;;8.48;;
25503;SDS011;13410;52.114;5.718;2022-08-19T04:02:37;11.43;;;8.48;;
25503;SDS011;13410;52.114;5.718;2022-08-19T04:05:02;11.98;;;8.52;;
25503;SDS011;13410;52.114;5.718;2022-08-19T04:07:28;10.10;;;7.85;;
25503;SDS011;13410;52.114;5.718;2022-08-19T04:09:53;10.80;;;7.95;;
25503;SDS011;13410;52.114;5.718;2022-08-19T04:12:19;12.13;;;8.10;;
25503;SDS011;13410;52.114;5.718;2022-08-19T04:14:45;7.78;;;6.40;;
25503;SDS011;13410;52.114;5.718;2022-08-19T04:17:11;11.55;;;7.45;;
25503;SDS011;13410;52.114;5.718;2022-08-19T04:19:38;12.00;;;8.13;;
25503;SDS011;13410;52.114;5.718;2022-08-19T04:22:03;8.65;;;6.22;;
25503;SDS011;13410;52.114;5.718;2022-08-19T04:24:29;13.05;;;7.93;;
25503;SDS011;13410;52.114;5.718;2022-08-19T04:26:55;12.32;;;8.82;;
25503;SDS011;13410;52.114;5.718;2022-08-19T04:29:22;10.98;;;7.95;;
25503;SDS011;13410;52.114;5.718;2022-08-19T04:31:50;13.20;;;8.98;;
25503;SDS011;13410;52.114;5.718;2022-08-19T04:34:19;13.88;;;9.32;;
25503;SDS011;13410;52.114;5.718;2022-08-19T04:36:47;11.40;;;8.88;;
25503;SDS011;13410;52.114;5.718;2022-08-19T04:39:16;11.88;;;8.05;;
25503;SDS011;13410;52.114;5.718;2022-08-19T04:41:44;20.13;;;10.23;;
25503;SDS011;13410;52.114;5.718;2022-08-19T04:44:34;14.88;;;10.13;;
25503;SDS011;13410;52.114;5.718;2022-08-19T04:47:00;13.38;;;11.02;;
25503;SDS011;13410;52.114;5.718;2022-08-19T04:49:28;17.80;;;11.82;;
25503;SDS011;13410;52.114;5.718;2022-08-19T04:51:56;16.05;;;11.73;;
25503;SDS011;13410;52.114;5.718;2022-08-19T04:54:23;19.75;;;10.32;;
25503;SDS011;13410;52.114;5.718;2022-08-19T04:56:50;12.32;;;9.82;;
25503;SDS011;13410;52.114;5.718;2022-08-19T04:59:17;17.30;;;10.45;;
25503;SDS011;13410;52.114;5.718;2022-08-19T05:01:44;16.27;;;9.88;;
25503;SDS011;13410;52.114;5.718;2022-08-19T05:04:13;13.35;;;10.70;;
25503;SDS011;13410;52.114;5.718;2022-08-19T05:06:39;20.40;;;13.30;;
25503;SDS011;13410;52.114;5.718;2022-08-19T05:09:04;22.40;;;15.52;;
25503;SDS011;13410;52.114;5.718;2022-08-19T05:11:32;20.92;;;16.92;;
25503;SDS011;13410;52.114;5.718;2022-08-19T05:14:00;21.27;;;15.77;;
25503;SDS011;13410;52.114;5.718;2022-08-19T05:16:26;19.20;;;13.30;;
25503;SDS011;13410;52.114;5.718;2022-08-19T05:18:52;20.27;;;13.65;;
25503;SDS011;13410;52.114;5.718;2022-08-19T05:21:37;16.38;;;11.82;;
25503;SDS011;13410;52.114;5.718;2022-08-19T05:24:22;17.48;;;11.75;;
25503;SDS011;13410;52.114;5.718;2022-08-19T05:26:49;15.13;;;10.18;;
25503;SDS011;13410;52.114;5.718;2022-08-19T05:29:17;13.20;;;10.43;;
25503;SDS011;13410;52.114;5.718;2022-08-19T05:31:45;16.17;;;9.75;;
25503;SDS011;13410;52.114;5.718;2022-08-19T05:34:14;12.32;;;9.07;;
25503;SDS011;13410;52.114;5.718;2022-08-19T05:36:40;12.65;;;8.52;;
25503;SDS011;13410;52.114;5.718;2022-08-19T05:39:09;8.93;;;7.35;;
25503;SDS011;13410;52.114;5.718;2022-08-19T05:41:40;8.88;;;6.38;;
25503;SDS011;13410;52.114;5.718;2022-08-19T05:44:14;13.05;;;7.85;;
25503;SDS011;13410;52.114;5.718;2022-08-19T05:46:40;12.32;;;8.38;;
25503;SDS011;13410;52.114;5.718;2022-08-19T05:49:08;16.38;;;9.00;;
25503;SDS011;13410;52.114;5.718;2022-08-19T05:51:34;17.00;;;8.23;;
25503;SDS011;13410;52.114;5.718;2022-08-19T05:54:02;11.48;;;8.15;;
25503;SDS011;13410;52.114;5.718;2022-08-19T05:56:28;12.63;;;9.48;;
25503;SDS011;13410;52.114;5.718;2022-08-19T05:58:55;11.13;;;9.98;;
25503;SDS011;13410;52.114;5.718;2022-08-19T06:01:22;10.75;;;9.55;;
25503;SDS011;13410;52.114;5.718;2022-08-19T06:03:47;10.70;;;8.82;;
25503;SDS011;13410;52.114;5.718;2022-08-19T06:06:14;10.23;;;9.05;;
25503;SDS011;13410;52.114;5.718;2022-08-19T06:08:41;10.93;;;9.23;;
25503;SDS011;13410;52.114;5.718;2022-08-19T06:11:15;11.20;;;8.80;;
25503;SDS011;13410;52.114;5.718;2022-08-19T06:13:40;6.65;;;5.93;;
25503;SDS011;13410;52.114;5.718;2022-08-19T06:16:06;13.20;;;9.25;;
25503;SDS011;13410;52.114;5.718;2022-08-19T06:18:32;10.95;;;9.63;;
25503;SDS011;13410;52.114;5.718;2022-08-19T06:20:58;12.90;;;10.98;;
25503;SDS011;13410;52.114;5.718;2022-08-19T06:23:24;15.40;;;12.25;;
25503;SDS011;13410;52.114;5.718;2022-08-19T06:25:50;19.02;;;12.98;;
25503;SDS011;13410;52.114;5.718;2022-08-19T06:28:16;14.35;;;12.90;;
25503;SDS011;13410;52.114;5.718;2022-08-19T06:30:41;18.50;;;15.55;;
25503;SDS011;13410;52.114;5.718;2022-08-19T06:33:07;18.50;;;16.20;;
25503;SDS011;13410;52.114;5.718;2022-08-19T06:35:32;35.13;;;15.05;;
25503;SDS011;13410;52.114;5.718;2022-08-19T06:38:03;22.42;;;17.55;;
25503;SDS011;13410;52.114;5.718;2022-08-19T06:40:29;21.85;;;16.30;;
25503;SDS011;13410;52.114;5.718;2022-08-19T06:42:55;29.17;;;22.35;;
25503;SDS011;13410;52.114;5.718;2022-08-19T06:45:22;34.10;;;23.83;;
25503;SDS011;13410;52.114;5.718;2022-08-19T06:47:48;29.58;;;20.05;;
25503;SDS011;13410;52.114;5.718;2022-08-19T06:50:13;33.25;;;21.63;;
25503;SDS011;13410;52.114;5.718;2022-08-19T06:52:39;38.13;;;24.40;;
25503;SDS011;13410;52.114;5.718;2022-08-19T06:55:05;40.10;;;24.08;;
25503;SDS011;13410;52.114;5.718;2022-08-19T06:57:31;49.60;;;28.08;;
25503;SDS011;13410;52.114;5.718;2022-08-19T06:59:57;43.60;;;26.55;;
25503;SDS011;13410;52.114;5.718;2022-08-19T07:02:24;50.25;;;27.15;;
25503;SDS011;13410;52.114;5.718;2022-08-19T07:04:51;42.42;;;25.35;;
25503;SDS011;13410;52.114;5.718;2022-08-19T07:07:18;49.03;;;28.27;;
25503;SDS011;13410;52.114;5.718;2022-08-19T07:09:45;34.67;;;20.10;;
25503;SDS011;13410;52.114;5.718;2022-08-19T07:12:12;45.15;;;27.27;;
25503;SDS011;13410;52.114;5.718;2022-08-19T07:14:40;36.70;;;24.10;;
25503;SDS011;13410;52.114;5.718;2022-08-19T07:17:08;47.17;;;27.70;;
25503;SDS011;13410;52.114;5.718;2022-08-19T07:19:35;48.63;;;29.52;;
25503;SDS011;13410;52.114;5.718;2022-08-19T07:22:02;40.72;;;26.38;;
25503;SDS011;13410;52.114;5.718;2022-08-19T07:24:29;42.70;;;28.33;;
25503;SDS011;13410;52.114;5.718;2022-08-19T07:26:56;31.77;;;21.98;;
25503;SDS011;13410;52.114;5.718;2022-08-19T07:29:26;39.15;;;26.08;;
25503;SDS011;13410;52.114;5.718;2022-08-19T07:31:53;34.30;;;23.00;;
25503;SDS011;13410;52.114;5.718;2022-08-19T07:34:24;32.28;;;22.83;;
25503;SDS011;13410;52.114;5.718;2022-08-19T07:36:51;41.28;;;27.45;;
25503;SDS011;13410;52.114;5.718;2022-08-19T07:39:18;28.90;;;18.63;;
25503;SDS011;13410;52.114;5.718;2022-08-19T07:41:46;41.80;;;28.83;;
25503;SDS011;13410;52.114;5.718;2022-08-19T07:44:13;44.53;;;31.02;;
25503;SDS011;13410;52.114;5.718;2022-08-19T07:46:41;34.22;;;25.42;;
25503;SDS011;13410;52.114;5.718;2022-08-19T07:49:09;43.58;;;33.22;;
25503;SDS011;13410;52.114;5.718;2022-08-19T07:51:54;41.67;;;30.70;;
25503;SDS011;13410;52.114;5.718;2022-08-19T07:54:23;41.97;;;30.95;;
25503;SDS011;13410;52.114;5.718;2022-08-19T07:56:49;43.63;;;32.25;;
25503;SDS011;13410;52.114;5.718;2022-08-19T07:59:15;50.72;;;37.83;;
25503;SDS011;13410;52.114;5.718;2022-08-19T08:01:43;46.42;;;34.47;;
25503;SDS011;13410;52.114;5.718;2022-08-19T08:04:09;44.90;;;34.40;;
25503;SDS011;13410;52.114;5.718;2022-08-19T08:06:53;52.72;;;37.08;;
25503;SDS011;13410;52.114;5.718;2022-08-19T08:09:39;49.67;;;36.42;;
25503;SDS011;13410;52.114;5.718;2022-08-19T08:12:10;44.92;;;32.50;;
25503;SDS011;13410;52.114;5.718;2022-08-19T08:14:46;49.33;;;34.38;;
25503;SDS011;13410;52.114;5.718;2022-08-19T08:17:15;40.53;;;31.00;;
25503;SDS011;13410;52.114;5.718;2022-08-19T08:19:42;44.03;;;33.38;;
25503;SDS011;13410;52.114;5.718;2022-08-19T08:22:09;39.03;;;29.25;;
25503;SDS011;13410;52.114;5.718;2022-08-19T08:25:05;40.40;;;29.08;;
25503;SDS011;13410;52.114;5.718;2022-08-19T08:27:37;38.92;;;29.42;;
25503;SDS011;13410;52.114;5.718;2022-08-19T08:32:33;37.58;;;27.73;;
25503;SDS011;13410;52.114;5.718;2022-08-19T08:34:59;40.65;;;29.40;;
25503;SDS011;13410;52.114;5.718;2022-08-19T08:37:25;37.83;;;26.25;;
25503;SDS011;13410;52.114;5.718;2022-08-19T08:39:50;37.45;;;26.58;;
25503;SDS011;13410;52.114;5.718;2022-08-19T08:42:24;36.30;;;26.10;;
25503;SDS011;13410;52.114;5.718;2022-08-19T08:45:00;33.25;;;25.23;;
25503;SDS011;13410;52.114;5.718;2022-08-19T08:47:32;31.02;;;22.70;;
25503;SDS011;13410;52.114;5.718;2022-08-19T08:50:04;38.05;;;26.63;;
25503;SDS011;13410;52.114;5.718;2022-08-19T08:52:35;37.10;;;26.45;;
25503;SDS011;13410;52.114;5.718;2022-08-19T08:55:08;34.30;;;24.27;;
25503;SDS011;13410;52.114;5.718;2022-08-19T09:00:23;43.47;;;29.60;;
25503;SDS011;13410;52.114;5.718;2022-08-19T09:02:58;41.33;;;28.55;;
25503;SDS011;13410;52.114;5.718;2022-08-19T09:05:42;41.40;;;28.90;;
25503;SDS011;13410;52.114;5.718;2022-08-19T09:08:48;32.47;;;22.70;;
25503;SDS011;13410;52.114;5.718;2022-08-19T09:11:18;36.80;;;24.98;;
25503;SDS011;13410;52.114;5.718;2022-08-19T09:16:42;34.45;;;23.20;;
25503;SDS011;13410;52.114;5.718;2022-08-19T09:19:08;28.05;;;20.52;;
25503;SDS011;13410;52.114;5.718;2022-08-19T09:21:35;35.42;;;23.42;;
25503;SDS011;13410;52.114;5.718;2022-08-19T09:24:01;30.35;;;21.42;;
25503;SDS011;13410;52.114;5.718;2022-08-19T09:26:28;35.83;;;23.10;;
25503;SDS011;13410;52.114;5.718;2022-08-19T09:28:54;35.15;;;23.85;;
25503;SDS011;13410;52.114;5.718;2022-08-19T09:31:22;33.17;;;22.98;;
25503;SDS011;13410;52.114;5.718;2022-08-19T09:33:49;34.40;;;22.90;;
25503;SDS011;13410;52.114;5.718;2022-08-19T09:36:16;30.55;;;21.48;;
25503;SDS011;13410;52.114;5.718;2022-08-19T09:38:44;25.15;;;18.23;;
25503;SDS011;13410;52.114;5.718;2022-08-19T09:41:14;30.83;;;21.35;;
25503;SDS011;13410;52.114;5.718;2022-08-19T09:43:43;30.23;;;22.00;;
25503;SDS011;13410;52.114;5.718;2022-08-19T09:46:12;31.60;;;22.80;;
25503;SDS011;13410;52.114;5.718;2022-08-19T09:48:38;29.88;;;20.63;;
25503;SDS011;13410;52.114;5.718;2022-08-19T09:51:10;31.45;;;23.45;;
25503;SDS011;13410;52.114;5.718;2022-08-19T09:53:40;29.60;;;21.02;;
25503;SDS011;13410;52.114;5.718;2022-08-19T09:56:06;30.27;;;21.23;;
25503;SDS011;13410;52.114;5.718;2022-08-19T09:58:32;33.13;;;22.60;;
25503;SDS011;13410;52.114;5.718;2022-08-19T10:00:59;29.42;;;22.00;;
25503;SDS011;13410;52.114;5.718;2022-08-19T10:03:27;27.92;;;20.95;;
25503;SDS011;13410;52.114;5.718;2022-08-19T10:05:54;24.95;;;18.15;;
25503;SDS011;13410;52.114;5.718;2022-08-19T10:08:22;26.00;;;19.38;;
25503;SDS011;13410;52.114;5.718;2022-08-19T10:10:53;29.63;;;22.30;;
25503;SDS011;13410;52.114;5.718;2022-08-19T10:13:20;30.15;;;21.50;;
25503;SDS011;13410;52.114;5.718;2022-08-19T10:15:50;23.48;;;18.10;;
25503;SDS011;13410;52.114;5.718;2022-08-19T10:18:17;24.25;;;17.95;;
25503;SDS011;13410;52.114;5.718;2022-08-19T10:20:45;18.38;;;14.48;;
25503;SDS011;13410;52.114;5.718;2022-08-19T10:23:12;23.40;;;17.50;;
25503;SDS011;13410;52.114;5.718;2022-08-19T10:25:38;20.63;;;14.73;;
25503;SDS011;13410;52.114;5.718;2022-08-19T10:28:04;22.17;;;15.55;;
25503;SDS011;13410;52.114;5.718;2022-08-19T10:30:31;18.30;;;14.82;;
25503;SDS011;13410;52.114;5.718;2022-08-19T10:32:57;15.70;;;11.90;;
25503;SDS011;13410;52.114;5.718;2022-08-19T10:35:22;16.45;;;12.82;;
25503;SDS011;13410;52.114;5.718;2022-08-19T10:37:49;24.58;;;17.65;;
25503;SDS011;13410;52.114;5.718;2022-08-19T10:40:15;19.95;;;14.43;;
25503;SDS011;13410;52.114;5.718;2022-08-19T10:42:40;21.95;;;16.40;;
25503;SDS011;13410;52.114;5.718;2022-08-19T10:45:06;19.35;;;16.15;;
25503;SDS011;13410;52.114;5.718;2022-08-19T10:47:32;19.10;;;14.25;;
25503;SDS011;13410;52.114;5.718;2022-08-19T10:49:58;18.58;;;14.00;;
25503;SDS011;13410;52.114;5.718;2022-08-19T10:52:43;18.25;;;14.93;;
25503;SDS011;13410;52.114;5.718;2022-08-19T10:55:13;20.30;;;15.07;;
25503;SDS011;13410;52.114;5.718;2022-08-19T10:57:57;20.73;;;15.18;;
25503;SDS011;13410;52.114;5.718;2022-08-19T11:00:23;16.65;;;12.93;;
25503;SDS011;13410;52.114;5.718;2022-08-19T11:02:50;17.73;;;14.40;;
25503;SDS011;13410;52.114;5.718;2022-08-19T11:05:16;19.73;;;15.38;;
25503;SDS011;13410;52.114;5.718;2022-08-19T11:07:43;19.30;;;15.00;;
25503;SDS011;13410;52.114;5.718;2022-08-19T11:10:10;21.23;;;15.77;;
25503;SDS011;13410;52.114;5.718;2022-08-19T11:12:38;20.33;;;15.75;;
25503;SDS011;13410;52.114;5.718;2022-08-19T11:15:05;21.80;;;15.88;;
25503;SDS011;13410;52.114;5.718;2022-08-19T11:17:33;23.05;;;16.55;;
25503;SDS011;13410;52.114;5.718;2022-08-19T11:20:00;21.85;;;15.75;;
25503;SDS011;13410;52.114;5.718;2022-08-19T11:22:29;20.80;;;16.15;;
25503;SDS011;13410;52.114;5.718;2022-08-19T11:24:55;18.52;;;15.20;;
25503;SDS011;13410;52.114;5.718;2022-08-19T11:27:20;20.95;;;14.90;;
25503;SDS011;13410;52.114;5.718;2022-08-19T11:29:46;21.10;;;16.45;;
25503;SDS011;13410;52.114;5.718;2022-08-19T11:32:12;18.75;;;14.20;;
25503;SDS011;13410;52.114;5.718;2022-08-19T11:34:38;21.30;;;15.00;;
25503;SDS011;13410;52.114;5.718;2022-08-19T11:37:04;17.95;;;14.05;;
25503;SDS011;13410;52.114;5.718;2022-08-19T11:39:30;15.85;;;12.70;;
25503;SDS011;13410;52.114;5.718;2022-08-19T11:41:58;18.73;;;15.25;;
25503;SDS011;13410;52.114;5.718;2022-08-19T11:44:26;16.95;;;13.35;;
25503;SDS011;13410;52.114;5.718;2022-08-19T11:46:55;21.20;;;14.15;;
25503;SDS011;13410;52.114;5.718;2022-08-19T11:49:21;23.45;;;15.45;;
25503;SDS011;13410;52.114;5.718;2022-08-19T11:51:46;19.55;;;15.02;;
25503;SDS011;13410;52.114;5.718;2022-08-19T11:54:15;20.23;;;17.23;;
25503;SDS011;13410;52.114;5.718;2022-08-19T11:56:42;23.52;;;17.95;;
25503;SDS011;13410;52.114;5.718;2022-08-19T11:59:09;23.50;;;18.25;;
25503;SDS011;13410;52.114;5.718;2022-08-19T12:01:35;23.80;;;15.85;;
25503;SDS011;13410;52.114;5.718;2022-08-19T12:04:01;26.58;;;18.27;;
25503;SDS011;13410;52.114;5.718;2022-08-19T12:06:30;23.58;;;18.20;;
25503;SDS011;13410;52.114;5.718;2022-08-19T12:08:58;27.77;;;20.38;;
25503;SDS011;13410;52.114;5.718;2022-08-19T12:11:25;23.02;;;18.73;;
25503;SDS011;13410;52.114;5.718;2022-08-19T12:13:52;21.80;;;18.65;;
25503;SDS011;13410;52.114;5.718;2022-08-19T12:16:20;22.85;;;17.15;;
25503;SDS011;13410;52.114;5.718;2022-08-19T12:18:48;20.63;;;15.45;;
25503;SDS011;13410;52.114;5.718;2022-08-19T12:21:16;24.27;;;18.80;;
25503;SDS011;13410;52.114;5.718;2022-08-19T12:23:50;24.60;;;20.02;;
25503;SDS011;13410;52.114;5.718;2022-08-19T12:26:16;23.30;;;17.13;;
25503;SDS011;13410;52.114;5.718;2022-08-19T12:28:42;24.70;;;18.35;;
25503;SDS011;13410;52.114;5.718;2022-08-19T12:31:09;23.58;;;18.77;;
25503;SDS011;13410;52.114;5.718;2022-08-19T12:33:37;26.00;;;19.55;;
25503;SDS011;13410;52.114;5.718;2022-08-19T12:36:04;21.60;;;17.75;;
25503;SDS011;13410;52.114;5.718;2022-08-19T12:38:32;26.98;;;21.70;;
25503;SDS011;13410;52.114;5.718;2022-08-19T12:40:59;26.05;;;17.90;;
25503;SDS011;13410;52.114;5.718;2022-08-19T12:43:25;25.00;;;18.40;;
25503;SDS011;13410;52.114;5.718;2022-08-19T12:45:51;21.60;;;16.23;;
25503;SDS011;13410;52.114;5.718;2022-08-19T12:48:16;23.77;;;19.45;;
25503;SDS011;13410;52.114;5.718;2022-08-19T12:50:43;26.63;;;21.67;;
25503;SDS011;13410;52.114;5.718;2022-08-19T12:53:13;23.48;;;18.50;;
25503;SDS011;13410;52.114;5.718;2022-08-19T12:55:39;26.05;;;20.08;;
25503;SDS011;13410;52.114;5.718;2022-08-19T12:58:05;23.27;;;19.45;;
25503;SDS011;13410;52.114;5.718;2022-08-19T13:00:30;25.85;;;18.52;;
25503;SDS011;13410;52.114;5.718;2022-08-19T13:02:57;25.33;;;20.38;;
25503;SDS011;13410;52.114;5.718;2022-08-19T13:05:25;16.27;;;13.43;;
25503;SDS011;13410;52.114;5.718;2022-08-19T13:07:54;28.17;;;18.08;;
25503;SDS011;13410;52.114;5.718;2022-08-19T13:10:22;24.20;;;18.42;;
25503;SDS011;13410;52.114;5.718;2022-08-19T13:12:50;22.20;;;17.98;;
25503;SDS011;13410;52.114;5.718;2022-08-19T13:15:17;20.52;;;16.88;;
25503;SDS011;13410;52.114;5.718;2022-08-19T13:17:50;21.35;;;17.40;;
25503;SDS011;13410;52.114;5.718;2022-08-19T13:20:17;21.23;;;18.17;;
25503;SDS011;13410;52.114;5.718;2022-08-19T13:22:45;17.83;;;14.82;;
25503;SDS011;13410;52.114;5.718;2022-08-19T13:25:11;23.10;;;18.38;;
25503;SDS011;13410;52.114;5.718;2022-08-19T13:27:38;22.90;;;18.30;;
25503;SDS011;13410;52.114;5.718;2022-08-19T13:30:05;23.60;;;19.67;;
25503;SDS011;13410;52.114;5.718;2022-08-19T13:32:52;23.02;;;17.98;;
25503;SDS011;13410;52.114;5.718;2022-08-19T13:35:36;25.52;;;21.50;;
25503;SDS011;13410;52.114;5.718;2022-08-19T13:38:16;27.73;;;22.58;;
25503;SDS011;13410;52.114;5.718;2022-08-19T13:40:45;27.90;;;21.75;;
25503;SDS011;13410;52.114;5.718;2022-08-19T13:43:12;22.00;;;18.40;;
25503;SDS011;13410;52.114;5.718;2022-08-19T13:45:38;31.20;;;24.17;;
25503;SDS011;13410;52.114;5.718;2022-08-19T13:48:05;37.78;;;28.38;;
25503;SDS011;13410;52.114;5.718;2022-08-19T13:50:33;31.95;;;23.83;;
25503;SDS011;13410;52.114;5.718;2022-08-19T13:53:03;38.47;;;28.57;;
25503;SDS011;13410;52.114;5.718;2022-08-19T13:55:29;45.70;;;32.22;;
25503;SDS011;13410;52.114;5.718;2022-08-19T13:57:56;39.83;;;30.50;;
25503;SDS011;13410;52.114;5.718;2022-08-19T14:00:25;46.08;;;32.08;;
25503;SDS011;13410;52.114;5.718;2022-08-19T14:02:53;41.55;;;27.63;;
25503;SDS011;13410;52.114;5.718;2022-08-19T14:05:21;36.10;;;28.13;;
25503;SDS011;13410;52.114;5.718;2022-08-19T14:07:47;36.53;;;28.50;;
25503;SDS011;13410;52.114;5.718;2022-08-19T14:10:14;29.38;;;22.10;;
25503;SDS011;13410;52.114;5.718;2022-08-19T14:12:40;32.03;;;26.33;;
25503;SDS011;13410;52.114;5.718;2022-08-19T14:15:07;33.83;;;27.00;;
25503;SDS011;13410;52.114;5.718;2022-08-19T14:17:34;33.58;;;26.85;;
25503;SDS011;13410;52.114;5.718;2022-08-19T14:20:10;34.38;;;28.05;;
25503;SDS011;13410;52.114;5.718;2022-08-19T14:22:37;38.28;;;28.42;;
25503;SDS011;13410;52.114;5.718;2022-08-19T14:25:05;34.53;;;23.10;;
25503;SDS011;13410;52.114;5.718;2022-08-19T14:27:34;34.80;;;25.75;;
25503;SDS011;13410;52.114;5.718;2022-08-19T14:30:01;41.42;;;29.33;;
25503;SDS011;13410;52.114;5.718;2022-08-19T14:32:29;42.90;;;29.05;;
25503;SDS011;13410;52.114;5.718;2022-08-19T14:34:55;24.17;;;18.50;;
25503;SDS011;13410;52.114;5.718;2022-08-19T14:37:20;13.20;;;8.45;;
25503;SDS011;13410;52.114;5.718;2022-08-19T14:39:47;14.10;;;10.02;;
25503;SDS011;13410;52.114;5.718;2022-08-19T14:42:13;9.43;;;7.85;;
25503;SDS011;13410;52.114;5.718;2022-08-19T14:44:39;11.55;;;8.55;;